Brileytown, Texas
Current Conditions -  °F | °C
As of 7:35 PM on Wednesday 22 Oct 2014 (Local Time) from KOCH Reporting Station
Clear Clear  
Wind Chill: 17°   Ceiling: Unl
Heat Index: 17°   Visibility: 10mi
Dew Point: 12°   Wind: 0mph
Humidity: 72%   Direction: NA
Pressure: 30.1"   Gusts: NA
Location:  31.7931°N, 94.5281°W
Report Text: KOCH 230035Z AUTO 00000KT 10SM CLR 17/12 A3010 RMK AO1
Loading
Personal Weather Stations






























Interactive Weather Map
Tropical Storm Tracking
New forecast layout! Learn more

10-Day Weather Forecast

Advertisements
Track Severe Weather on mobile